sensor_id;sensor_type;location;lat;lon;timestamp;P1;durP1;ratioP1;P2;durP2;ratioP2
78561;SDS011;68963;52.138;5.446;2023-04-27T00:01:49;11.38;;;4.85;;
78561;SDS011;68963;52.138;5.446;2023-04-27T00:04:16;12.18;;;5.00;;
78561;SDS011;68963;52.138;5.446;2023-04-27T00:06:44;11.38;;;4.60;;
78561;SDS011;68963;52.138;5.446;2023-04-27T00:09:11;10.55;;;5.05;;
78561;SDS011;68963;52.138;5.446;2023-04-27T00:11:38;13.88;;;5.30;;
78561;SDS011;68963;52.138;5.446;2023-04-27T00:14:04;12.68;;;5.20;;
78561;SDS011;68963;52.138;5.446;2023-04-27T00:16:31;13.65;;;5.70;;
78561;SDS011;68963;52.138;5.446;2023-04-27T00:18:58;12.20;;;5.72;;
78561;SDS011;68963;52.138;5.446;2023-04-27T00:21:25;14.32;;;5.55;;
78561;SDS011;68963;52.138;5.446;2023-04-27T00:23:53;12.43;;;5.43;;
78561;SDS011;68963;52.138;5.446;2023-04-27T00:26:19;12.95;;;5.85;;
78561;SDS011;68963;52.138;5.446;2023-04-27T00:28:47;14.98;;;6.30;;
78561;SDS011;68963;52.138;5.446;2023-04-27T00:31:13;16.20;;;6.38;;
78561;SDS011;68963;52.138;5.446;2023-04-27T00:33:40;15.02;;;6.22;;
78561;SDS011;68963;52.138;5.446;2023-04-27T00:36:07;15.30;;;6.65;;
78561;SDS011;68963;52.138;5.446;2023-04-27T00:38:33;18.80;;;6.97;;
78561;SDS011;68963;52.138;5.446;2023-04-27T00:41:03;14.43;;;5.95;;
78561;SDS011;68963;52.138;5.446;2023-04-27T00:43:32;18.58;;;6.80;;
78561;SDS011;68963;52.138;5.446;2023-04-27T00:46:06;16.48;;;7.20;;
78561;SDS011;68963;52.138;5.446;2023-04-27T00:48:33;19.10;;;8.02;;
78561;SDS011;68963;52.138;5.446;2023-04-27T00:51:00;15.88;;;6.82;;
78561;SDS011;68963;52.138;5.446;2023-04-27T00:53:27;15.48;;;6.70;;
78561;SDS011;68963;52.138;5.446;2023-04-27T00:55:53;16.27;;;7.30;;
78561;SDS011;68963;52.138;5.446;2023-04-27T00:58:21;17.35;;;7.85;;
78561;SDS011;68963;52.138;5.446;2023-04-27T01:00:48;15.18;;;6.85;;
78561;SDS011;68963;52.138;5.446;2023-04-27T01:03:14;15.82;;;6.70;;
78561;SDS011;68963;52.138;5.446;2023-04-27T01:05:41;18.60;;;7.28;;
78561;SDS011;68963;52.138;5.446;2023-04-27T01:08:08;18.27;;;7.75;;
78561;SDS011;68963;52.138;5.446;2023-04-27T01:10:35;17.08;;;7.07;;
78561;SDS011;68963;52.138;5.446;2023-04-27T01:13:02;15.48;;;7.05;;
78561;SDS011;68963;52.138;5.446;2023-04-27T01:15:29;15.73;;;6.78;;
78561;SDS011;68963;52.138;5.446;2023-04-27T01:17:59;17.33;;;6.72;;
78561;SDS011;68963;52.138;5.446;2023-04-27T01:20:27;16.08;;;6.88;;
78561;SDS011;68963;52.138;5.446;2023-04-27T01:22:57;19.00;;;7.68;;
78561;SDS011;68963;52.138;5.446;2023-04-27T01:25:25;20.10;;;7.43;;
78561;SDS011;68963;52.138;5.446;2023-04-27T01:27:51;17.13;;;7.22;;
78561;SDS011;68963;52.138;5.446;2023-04-27T01:30:19;17.10;;;7.32;;
78561;SDS011;68963;52.138;5.446;2023-04-27T01:32:47;15.32;;;7.70;;
78561;SDS011;68963;52.138;5.446;2023-04-27T01:35:15;17.25;;;7.05;;
78561;SDS011;68963;52.138;5.446;2023-04-27T01:37:42;16.30;;;6.90;;
78561;SDS011;68963;52.138;5.446;2023-04-27T01:40:08;15.88;;;6.88;;
78561;SDS011;68963;52.138;5.446;2023-04-27T01:42:35;16.05;;;6.35;;
78561;SDS011;68963;52.138;5.446;2023-04-27T01:45:01;14.57;;;6.35;;
78561;SDS011;68963;52.138;5.446;2023-04-27T01:47:29;15.02;;;5.68;;
78561;SDS011;68963;52.138;5.446;2023-04-27T01:49:55;16.58;;;6.22;;
78561;SDS011;68963;52.138;5.446;2023-04-27T01:52:22;14.48;;;6.10;;
78561;SDS011;68963;52.138;5.446;2023-04-27T01:54:48;13.23;;;5.60;;
78561;SDS011;68963;52.138;5.446;2023-04-27T01:57:15;11.63;;;5.22;;
78561;SDS011;68963;52.138;5.446;2023-04-27T01:59:41;13.00;;;4.35;;
78561;SDS011;68963;52.138;5.446;2023-04-27T02:02:08;10.05;;;4.82;;
78561;SDS011;68963;52.138;5.446;2023-04-27T02:04:34;12.90;;;4.70;;
78561;SDS011;68963;52.138;5.446;2023-04-27T02:07:02;10.70;;;4.47;;
78561;SDS011;68963;52.138;5.446;2023-04-27T02:09:28;11.70;;;4.75;;
78561;SDS011;68963;52.138;5.446;2023-04-27T02:11:55;12.05;;;5.28;;
78561;SDS011;68963;52.138;5.446;2023-04-27T02:14:21;13.10;;;4.72;;
78561;SDS011;68963;52.138;5.446;2023-04-27T02:16:47;15.68;;;4.90;;
78561;SDS011;68963;52.138;5.446;2023-04-27T02:19:14;9.63;;;4.57;;
78561;SDS011;68963;52.138;5.446;2023-04-27T02:21:41;12.32;;;4.90;;
78561;SDS011;68963;52.138;5.446;2023-04-27T02:24:08;13.48;;;5.30;;
78561;SDS011;68963;52.138;5.446;2023-04-27T02:26:35;13.18;;;5.30;;
78561;SDS011;68963;52.138;5.446;2023-04-27T02:29:01;11.63;;;5.00;;
78561;SDS011;68963;52.138;5.446;2023-04-27T02:31:29;12.18;;;5.07;;
78561;SDS011;68963;52.138;5.446;2023-04-27T02:33:56;12.35;;;4.88;;
78561;SDS011;68963;52.138;5.446;2023-04-27T02:36:22;9.98;;;4.50;;
78561;SDS011;68963;52.138;5.446;2023-04-27T02:38:49;10.93;;;4.28;;
78561;SDS011;68963;52.138;5.446;2023-04-27T02:41:15;10.48;;;4.65;;
78561;SDS011;68963;52.138;5.446;2023-04-27T02:43:42;11.43;;;4.82;;
78561;SDS011;68963;52.138;5.446;2023-04-27T02:46:08;15.10;;;5.30;;
78561;SDS011;68963;52.138;5.446;2023-04-27T02:48:35;11.25;;;4.78;;
78561;SDS011;68963;52.138;5.446;2023-04-27T02:51:02;12.23;;;4.72;;
78561;SDS011;68963;52.138;5.446;2023-04-27T02:53:29;11.93;;;5.00;;
78561;SDS011;68963;52.138;5.446;2023-04-27T02:55:56;12.27;;;5.00;;
78561;SDS011;68963;52.138;5.446;2023-04-27T02:58:23;13.00;;;4.90;;
78561;SDS011;68963;52.138;5.446;2023-04-27T03:00:53;12.27;;;5.00;;
78561;SDS011;68963;52.138;5.446;2023-04-27T03:03:21;13.00;;;5.80;;
78561;SDS011;68963;52.138;5.446;2023-04-27T03:05:48;12.05;;;5.15;;
78561;SDS011;68963;52.138;5.446;2023-04-27T03:08:15;12.93;;;5.00;;
78561;SDS011;68963;52.138;5.446;2023-04-27T03:10:41;12.63;;;5.10;;
78561;SDS011;68963;52.138;5.446;2023-04-27T03:13:07;11.90;;;4.88;;
78561;SDS011;68963;52.138;5.446;2023-04-27T03:15:34;13.93;;;4.75;;
78561;SDS011;68963;52.138;5.446;2023-04-27T03:18:00;13.07;;;5.13;;
78561;SDS011;68963;52.138;5.446;2023-04-27T03:20:27;11.52;;;5.05;;
78561;SDS011;68963;52.138;5.446;2023-04-27T03:22:53;11.98;;;5.10;;
78561;SDS011;68963;52.138;5.446;2023-04-27T03:25:20;12.20;;;5.13;;
78561;SDS011;68963;52.138;5.446;2023-04-27T03:27:46;13.38;;;5.15;;
78561;SDS011;68963;52.138;5.446;2023-04-27T03:30:13;12.63;;;5.38;;
78561;SDS011;68963;52.138;5.446;2023-04-27T03:32:40;14.40;;;5.40;;
78561;SDS011;68963;52.138;5.446;2023-04-27T03:35:06;10.77;;;4.57;;
78561;SDS011;68963;52.138;5.446;2023-04-27T03:37:34;11.13;;;5.03;;
78561;SDS011;68963;52.138;5.446;2023-04-27T03:40:00;11.40;;;4.95;;
78561;SDS011;68963;52.138;5.446;2023-04-27T03:42:27;13.38;;;4.95;;
78561;SDS011;68963;52.138;5.446;2023-04-27T03:44:54;10.75;;;4.72;;
78561;SDS011;68963;52.138;5.446;2023-04-27T03:47:21;12.38;;;5.43;;
78561;SDS011;68963;52.138;5.446;2023-04-27T03:49:47;12.85;;;4.72;;
78561;SDS011;68963;52.138;5.446;2023-04-27T03:52:14;12.65;;;4.85;;
78561;SDS011;68963;52.138;5.446;2023-04-27T03:54:40;11.18;;;4.97;;
78561;SDS011;68963;52.138;5.446;2023-04-27T03:57:07;13.30;;;5.53;;
78561;SDS011;68963;52.138;5.446;2023-04-27T03:59:34;11.52;;;4.80;;
78561;SDS011;68963;52.138;5.446;2023-04-27T04:02:00;11.40;;;5.20;;
78561;SDS011;68963;52.138;5.446;2023-04-27T04:04:29;12.35;;;4.43;;
78561;SDS011;68963;52.138;5.446;2023-04-27T04:06:56;10.15;;;4.47;;
78561;SDS011;68963;52.138;5.446;2023-04-27T04:09:22;13.80;;;5.30;;
78561;SDS011;68963;52.138;5.446;2023-04-27T04:11:50;12.38;;;4.68;;
78561;SDS011;68963;52.138;5.446;2023-04-27T04:14:17;9.43;;;4.40;;
78561;SDS011;68963;52.138;5.446;2023-04-27T04:16:44;12.15;;;4.97;;
78561;SDS011;68963;52.138;5.446;2023-04-27T04:19:10;12.05;;;4.50;;
78561;SDS011;68963;52.138;5.446;2023-04-27T04:21:37;11.27;;;4.75;;
78561;SDS011;68963;52.138;5.446;2023-04-27T04:24:03;11.20;;;4.82;;
78561;SDS011;68963;52.138;5.446;2023-04-27T04:26:31;12.55;;;4.30;;
78561;SDS011;68963;52.138;5.446;2023-04-27T04:28:57;10.10;;;4.63;;
78561;SDS011;68963;52.138;5.446;2023-04-27T04:31:24;11.18;;;4.50;;
78561;SDS011;68963;52.138;5.446;2023-04-27T04:33:51;13.18;;;5.28;;
78561;SDS011;68963;52.138;5.446;2023-04-27T04:36:18;15.27;;;6.72;;
78561;SDS011;68963;52.138;5.446;2023-04-27T04:38:47;16.45;;;6.45;;
78561;SDS011;68963;52.138;5.446;2023-04-27T04:41:13;12.20;;;5.32;;
78561;SDS011;68963;52.138;5.446;2023-04-27T04:43:40;15.35;;;6.15;;
78561;SDS011;68963;52.138;5.446;2023-04-27T04:46:07;14.50;;;5.78;;
78561;SDS011;68963;52.138;5.446;2023-04-27T04:48:33;15.35;;;5.43;;
78561;SDS011;68963;52.138;5.446;2023-04-27T04:51:00;13.52;;;5.63;;
78561;SDS011;68963;52.138;5.446;2023-04-27T04:53:27;13.05;;;4.95;;
78561;SDS011;68963;52.138;5.446;2023-04-27T04:55:53;13.93;;;5.18;;
78561;SDS011;68963;52.138;5.446;2023-04-27T04:58:20;14.00;;;5.00;;
78561;SDS011;68963;52.138;5.446;2023-04-27T05:00:46;12.48;;;5.40;;
78561;SDS011;68963;52.138;5.446;2023-04-27T05:03:13;13.73;;;4.85;;
78561;SDS011;68963;52.138;5.446;2023-04-27T05:05:39;12.95;;;5.15;;
78561;SDS011;68963;52.138;5.446;2023-04-27T05:08:06;14.93;;;5.43;;
78561;SDS011;68963;52.138;5.446;2023-04-27T05:10:32;12.80;;;5.10;;
78561;SDS011;68963;52.138;5.446;2023-04-27T05:12:59;14.88;;;5.30;;
78561;SDS011;68963;52.138;5.446;2023-04-27T05:15:25;12.25;;;4.93;;
78561;SDS011;68963;52.138;5.446;2023-04-27T05:17:51;11.70;;;5.07;;
78561;SDS011;68963;52.138;5.446;2023-04-27T05:20:21;13.60;;;5.45;;
78561;SDS011;68963;52.138;5.446;2023-04-27T05:22:47;13.23;;;5.15;;
78561;SDS011;68963;52.138;5.446;2023-04-27T05:25:14;13.25;;;5.50;;
78561;SDS011;68963;52.138;5.446;2023-04-27T05:27:41;14.77;;;5.60;;
78561;SDS011;68963;52.138;5.446;2023-04-27T05:30:08;13.57;;;5.18;;
78561;SDS011;68963;52.138;5.446;2023-04-27T05:32:34;13.02;;;5.53;;
78561;SDS011;68963;52.138;5.446;2023-04-27T05:35:02;14.05;;;5.72;;
78561;SDS011;68963;52.138;5.446;2023-04-27T05:37:30;17.05;;;5.32;;
78561;SDS011;68963;52.138;5.446;2023-04-27T05:39:57;11.20;;;4.50;;
78561;SDS011;68963;52.138;5.446;2023-04-27T05:42:23;11.18;;;4.80;;
78561;SDS011;68963;52.138;5.446;2023-04-27T05:44:50;9.90;;;4.47;;
78561;SDS011;68963;52.138;5.446;2023-04-27T05:47:16;10.60;;;4.50;;
78561;SDS011;68963;52.138;5.446;2023-04-27T05:49:42;13.35;;;5.05;;
78561;SDS011;68963;52.138;5.446;2023-04-27T05:52:09;10.13;;;4.35;;
78561;SDS011;68963;52.138;5.446;2023-04-27T05:54:35;12.98;;;5.30;;
78561;SDS011;68963;52.138;5.446;2023-04-27T05:57:02;11.38;;;4.60;;
78561;SDS011;68963;52.138;5.446;2023-04-27T05:59:29;12.25;;;4.30;;
78561;SDS011;68963;52.138;5.446;2023-04-27T06:01:55;10.98;;;4.05;;
78561;SDS011;68963;52.138;5.446;2023-04-27T06:04:22;10.48;;;4.88;;
78561;SDS011;68963;52.138;5.446;2023-04-27T06:06:49;17.13;;;4.63;;
78561;SDS011;68963;52.138;5.446;2023-04-27T06:09:15;13.18;;;4.43;;
78561;SDS011;68963;52.138;5.446;2023-04-27T06:11:42;10.50;;;4.40;;
78561;SDS011;68963;52.138;5.446;2023-04-27T06:14:08;11.98;;;4.88;;
78561;SDS011;68963;52.138;5.446;2023-04-27T06:16:35;13.68;;;4.60;;
78561;SDS011;68963;52.138;5.446;2023-04-27T06:19:01;14.27;;;5.00;;
78561;SDS011;68963;52.138;5.446;2023-04-27T06:21:30;11.80;;;4.57;;
78561;SDS011;68963;52.138;5.446;2023-04-27T06:23:58;10.88;;;4.85;;
78561;SDS011;68963;52.138;5.446;2023-04-27T06:26:26;11.35;;;4.57;;
78561;SDS011;68963;52.138;5.446;2023-04-27T06:28:53;10.95;;;4.65;;
78561;SDS011;68963;52.138;5.446;2023-04-27T06:31:20;11.68;;;5.13;;
78561;SDS011;68963;52.138;5.446;2023-04-27T06:33:46;14.07;;;5.60;;
78561;SDS011;68963;52.138;5.446;2023-04-27T06:36:13;13.52;;;4.93;;
78561;SDS011;68963;52.138;5.446;2023-04-27T06:38:39;13.10;;;4.88;;
78561;SDS011;68963;52.138;5.446;2023-04-27T06:41:06;13.55;;;4.28;;
78561;SDS011;68963;52.138;5.446;2023-04-27T06:43:32;11.95;;;5.28;;
78561;SDS011;68963;52.138;5.446;2023-04-27T06:45:59;12.07;;;4.85;;
78561;SDS011;68963;52.138;5.446;2023-04-27T06:48:26;16.00;;;5.28;;
78561;SDS011;68963;52.138;5.446;2023-04-27T06:50:52;11.93;;;4.72;;
78561;SDS011;68963;52.138;5.446;2023-04-27T06:53:19;11.55;;;5.05;;
78561;SDS011;68963;52.138;5.446;2023-04-27T06:55:45;9.82;;;4.50;;
78561;SDS011;68963;52.138;5.446;2023-04-27T06:58:13;14.95;;;4.68;;
78561;SDS011;68963;52.138;5.446;2023-04-27T07:00:40;12.38;;;5.00;;
78561;SDS011;68963;52.138;5.446;2023-04-27T07:03:07;11.90;;;4.47;;
78561;SDS011;68963;52.138;5.446;2023-04-27T07:05:33;11.77;;;4.60;;
78561;SDS011;68963;52.138;5.446;2023-04-27T07:08:00;9.00;;;4.30;;
78561;SDS011;68963;52.138;5.446;2023-04-27T07:10:32;11.77;;;4.60;;
78561;SDS011;68963;52.138;5.446;2023-04-27T07:12:58;11.65;;;4.05;;
78561;SDS011;68963;52.138;5.446;2023-04-27T07:15:25;11.05;;;4.40;;
78561;SDS011;68963;52.138;5.446;2023-04-27T07:17:52;13.45;;;4.15;;
78561;SDS011;68963;52.138;5.446;2023-04-27T07:20:21;10.57;;;4.13;;
78561;SDS011;68963;52.138;5.446;2023-04-27T07:22:48;12.65;;;3.92;;
78561;SDS011;68963;52.138;5.446;2023-04-27T07:25:14;8.07;;;3.70;;
78561;SDS011;68963;52.138;5.446;2023-04-27T07:27:41;11.52;;;4.00;;
78561;SDS011;68963;52.138;5.446;2023-04-27T07:30:08;8.85;;;3.60;;
78561;SDS011;68963;52.138;5.446;2023-04-27T07:32:35;9.20;;;4.10;;
78561;SDS011;68963;52.138;5.446;2023-04-27T07:35:04;8.88;;;3.72;;
78561;SDS011;68963;52.138;5.446;2023-04-27T07:37:31;10.35;;;3.75;;
78561;SDS011;68963;52.138;5.446;2023-04-27T07:39:57;9.70;;;3.58;;
78561;SDS011;68963;52.138;5.446;2023-04-27T07:42:24;9.32;;;4.07;;
78561;SDS011;68963;52.138;5.446;2023-04-27T07:44:51;10.25;;;3.55;;
78561;SDS011;68963;52.138;5.446;2023-04-27T07:47:17;9.32;;;3.40;;
78561;SDS011;68963;52.138;5.446;2023-04-27T07:49:44;10.73;;;3.78;;
78561;SDS011;68963;52.138;5.446;2023-04-27T07:52:11;8.32;;;3.38;;
78561;SDS011;68963;52.138;5.446;2023-04-27T07:54:38;9.05;;;3.50;;
78561;SDS011;68963;52.138;5.446;2023-04-27T07:57:08;7.30;;;2.92;;
78561;SDS011;68963;52.138;5.446;2023-04-27T07:59:38;8.05;;;3.15;;
78561;SDS011;68963;52.138;5.446;2023-04-27T08:02:05;8.52;;;3.70;;
78561;SDS011;68963;52.138;5.446;2023-04-27T08:04:43;7.88;;;3.50;;
78561;SDS011;68963;52.138;5.446;2023-04-27T08:07:11;8.57;;;3.20;;
78561;SDS011;68963;52.138;5.446;2023-04-27T08:09:38;6.47;;;2.90;;
78561;SDS011;68963;52.138;5.446;2023-04-27T08:12:04;7.78;;;3.17;;
78561;SDS011;68963;52.138;5.446;2023-04-27T08:14:32;9.93;;;3.20;;
78561;SDS011;68963;52.138;5.446;2023-04-27T08:17:02;6.03;;;2.67;;
78561;SDS011;68963;52.138;5.446;2023-04-27T08:19:28;7.75;;;2.83;;
78561;SDS011;68963;52.138;5.446;2023-04-27T08:21:55;8.35;;;3.25;;
78561;SDS011;68963;52.138;5.446;2023-04-27T08:24:21;7.88;;;3.17;;
78561;SDS011;68963;52.138;5.446;2023-04-27T08:26:48;6.68;;;2.95;;
78561;SDS011;68963;52.138;5.446;2023-04-27T08:29:14;6.07;;;2.95;;
78561;SDS011;68963;52.138;5.446;2023-04-27T08:31:53;7.43;;;3.00;;
78561;SDS011;68963;52.138;5.446;2023-04-27T08:34:22;11.18;;;3.08;;
78561;SDS011;68963;52.138;5.446;2023-04-27T08:36:48;6.90;;;3.15;;
78561;SDS011;68963;52.138;5.446;2023-04-27T08:39:15;8.25;;;3.15;;
78561;SDS011;68963;52.138;5.446;2023-04-27T08:41:43;7.00;;;3.03;;
78561;SDS011;68963;52.138;5.446;2023-04-27T08:44:10;6.13;;;2.65;;
78561;SDS011;68963;52.138;5.446;2023-04-27T08:46:37;7.65;;;2.50;;
78561;SDS011;68963;52.138;5.446;2023-04-27T08:49:04;6.07;;;2.70;;
78561;SDS011;68963;52.138;5.446;2023-04-27T08:51:32;9.82;;;3.67;;
78561;SDS011;68963;52.138;5.446;2023-04-27T08:53:59;6.75;;;2.97;;
78561;SDS011;68963;52.138;5.446;2023-04-27T08:56:27;8.27;;;2.60;;
78561;SDS011;68963;52.138;5.446;2023-04-27T08:58:55;8.82;;;3.40;;
78561;SDS011;68963;52.138;5.446;2023-04-27T09:01:22;9.07;;;2.85;;
78561;SDS011;68963;52.138;5.446;2023-04-27T09:03:59;6.30;;;2.85;;
78561;SDS011;68963;52.138;5.446;2023-04-27T09:06:33;6.82;;;2.80;;
78561;SDS011;68963;52.138;5.446;2023-04-27T09:09:01;8.65;;;2.72;;
78561;SDS011;68963;52.138;5.446;2023-04-27T09:11:32;6.72;;;3.10;;
78561;SDS011;68963;52.138;5.446;2023-04-27T09:14:00;7.75;;;2.90;;
78561;SDS011;68963;52.138;5.446;2023-04-27T09:16:43;7.68;;;2.70;;
78561;SDS011;68963;52.138;5.446;2023-04-27T09:19:10;6.55;;;3.00;;
78561;SDS011;68963;52.138;5.446;2023-04-27T09:21:37;8.95;;;3.42;;
78561;SDS011;68963;52.138;5.446;2023-04-27T09:24:10;9.07;;;3.28;;
78561;SDS011;68963;52.138;5.446;2023-04-27T09:26:38;8.25;;;3.33;;
78561;SDS011;68963;52.138;5.446;2023-04-27T09:29:05;7.05;;;3.20;;
78561;SDS011;68963;52.138;5.446;2023-04-27T09:31:33;6.82;;;3.20;;
78561;SDS011;68963;52.138;5.446;2023-04-27T09:34:01;8.02;;;3.03;;
78561;SDS011;68963;52.138;5.446;2023-04-27T09:36:28;8.43;;;3.20;;
78561;SDS011;68963;52.138;5.446;2023-04-27T09:38:56;10.05;;;3.28;;
78561;SDS011;68963;52.138;5.446;2023-04-27T09:41:24;8.10;;;3.33;;
78561;SDS011;68963;52.138;5.446;2023-04-27T09:43:50;8.70;;;3.10;;
78561;SDS011;68963;52.138;5.446;2023-04-27T09:46:22;6.95;;;3.20;;
78561;SDS011;68963;52.138;5.446;2023-04-27T09:48:51;7.85;;;3.50;;
78561;SDS011;68963;52.138;5.446;2023-04-27T09:51:18;7.40;;;3.30;;
78561;SDS011;68963;52.138;5.446;2023-04-27T09:53:51;9.13;;;3.95;;
78561;SDS011;68963;52.138;5.446;2023-04-27T10:01:40;8.50;;;3.85;;
78561;SDS011;68963;52.138;5.446;2023-04-27T10:04:15;8.75;;;3.45;;
78561;SDS011;68963;52.138;5.446;2023-04-27T10:09:25;8.13;;;3.40;;
78561;SDS011;68963;52.138;5.446;2023-04-27T10:11:54;7.10;;;3.33;;
78561;SDS011;68963;52.138;5.446;2023-04-27T10:14:21;8.88;;;3.67;;
78561;SDS011;68963;52.138;5.446;2023-04-27T10:16:53;6.65;;;3.00;;
78561;SDS011;68963;52.138;5.446;2023-04-27T10:19:22;10.05;;;3.65;;
78561;SDS011;68963;52.138;5.446;2023-04-27T10:21:57;11.80;;;3.90;;
78561;SDS011;68963;52.138;5.446;2023-04-27T10:24:38;6.65;;;3.63;;
78561;SDS011;68963;52.138;5.446;2023-04-27T10:27:07;7.45;;;3.45;;
78561;SDS011;68963;52.138;5.446;2023-04-27T10:29:40;8.35;;;3.60;;
78561;SDS011;68963;52.138;5.446;2023-04-27T10:32:10;9.77;;;3.80;;
78561;SDS011;68963;52.138;5.446;2023-04-27T10:34:38;6.38;;;3.38;;
78561;SDS011;68963;52.138;5.446;2023-04-27T10:37:05;6.63;;;3.35;;
78561;SDS011;68963;52.138;5.446;2023-04-27T10:39:37;7.13;;;3.80;;
78561;SDS011;68963;52.138;5.446;2023-04-27T10:42:13;10.93;;;4.43;;
78561;SDS011;68963;52.138;5.446;2023-04-27T10:44:53;7.05;;;3.53;;
78561;SDS011;68963;52.138;5.446;2023-04-27T10:47:22;7.20;;;4.13;;
78561;SDS011;68963;52.138;5.446;2023-04-27T10:49:52;7.70;;;4.10;;
78561;SDS011;68963;52.138;5.446;2023-04-27T10:52:22;9.15;;;4.22;;
78561;SDS011;68963;52.138;5.446;2023-04-27T10:54:48;8.93;;;3.90;;
78561;SDS011;68963;52.138;5.446;2023-04-27T10:57:15;11.35;;;4.40;;
78561;SDS011;68963;52.138;5.446;2023-04-27T11:02:25;7.07;;;3.65;;
78561;SDS011;68963;52.138;5.446;2023-04-27T11:04:53;7.47;;;3.63;;
78561;SDS011;68963;52.138;5.446;2023-04-27T11:07:25;7.22;;;3.75;;
78561;SDS011;68963;52.138;5.446;2023-04-27T11:09:52;9.45;;;3.92;;
78561;SDS011;68963;52.138;5.446;2023-04-27T11:12:19;8.82;;;3.60;;
78561;SDS011;68963;52.138;5.446;2023-04-27T11:14:46;7.38;;;3.72;;
78561;SDS011;68963;52.138;5.446;2023-04-27T11:17:13;7.05;;;3.72;;
78561;SDS011;68963;52.138;5.446;2023-04-27T11:19:43;10.27;;;3.97;;
78561;SDS011;68963;52.138;5.446;2023-04-27T11:22:13;8.23;;;4.32;;
78561;SDS011;68963;52.138;5.446;2023-04-27T11:24:47;8.10;;;3.92;;
78561;SDS011;68963;52.138;5.446;2023-04-27T11:27:15;9.25;;;4.20;;
78561;SDS011;68963;52.138;5.446;2023-04-27T11:29:42;7.75;;;4.13;;
78561;SDS011;68963;52.138;5.446;2023-04-27T11:32:20;8.18;;;4.03;;
78561;SDS011;68963;52.138;5.446;2023-04-27T11:34:51;7.82;;;4.00;;
78561;SDS011;68963;52.138;5.446;2023-04-27T11:37:21;8.40;;;4.07;;
78561;SDS011;68963;52.138;5.446;2023-04-27T11:39:50;9.13;;;4.15;;
78561;SDS011;68963;52.138;5.446;2023-04-27T11:42:18;7.45;;;3.88;;
78561;SDS011;68963;52.138;5.446;2023-04-27T11:44:55;7.38;;;3.83;;
78561;SDS011;68963;52.138;5.446;2023-04-27T11:47:24;8.75;;;4.05;;
78561;SDS011;68963;52.138;5.446;2023-04-27T11:49:56;8.65;;;4.53;;
78561;SDS011;68963;52.138;5.446;2023-04-27T11:52:28;8.52;;;4.30;;
78561;SDS011;68963;52.138;5.446;2023-04-27T11:54:55;8.95;;;4.80;;
78561;SDS011;68963;52.138;5.446;2023-04-27T11:57:25;8.75;;;4.55;;
78561;SDS011;68963;52.138;5.446;2023-04-27T11:59:53;8.35;;;4.35;;
78561;SDS011;68963;52.138;5.446;2023-04-27T12:02:20;10.98;;;4.20;;
78561;SDS011;68963;52.138;5.446;2023-04-27T12:04:48;8.05;;;4.13;;
78561;SDS011;68963;52.138;5.446;2023-04-27T12:07:18;9.23;;;4.15;;
78561;SDS011;68963;52.138;5.446;2023-04-27T12:09:45;8.82;;;3.97;;
78561;SDS011;68963;52.138;5.446;2023-04-27T12:12:12;7.90;;;4.15;;
78561;SDS011;68963;52.138;5.446;2023-04-27T12:14:39;8.75;;;3.80;;
78561;SDS011;68963;52.138;5.446;2023-04-27T12:17:06;8.95;;;4.15;;
78561;SDS011;68963;52.138;5.446;2023-04-27T12:19:33;9.40;;;4.60;;
78561;SDS011;68963;52.138;5.446;2023-04-27T12:21:59;9.65;;;4.72;;
78561;SDS011;68963;52.138;5.446;2023-04-27T12:24:26;10.38;;;4.53;;
78561;SDS011;68963;52.138;5.446;2023-04-27T12:26:52;9.43;;;4.85;;
78561;SDS011;68963;52.138;5.446;2023-04-27T12:29:19;10.50;;;4.60;;
78561;SDS011;68963;52.138;5.446;2023-04-27T12:31:46;7.82;;;4.45;;
78561;SDS011;68963;52.138;5.446;2023-04-27T12:34:13;8.95;;;4.35;;
78561;SDS011;68963;52.138;5.446;2023-04-27T12:36:40;8.63;;;4.60;;
78561;SDS011;68963;52.138;5.446;2023-04-27T12:39:16;8.20;;;4.70;;
78561;SDS011;68963;52.138;5.446;2023-04-27T12:41:45;9.57;;;4.80;;
78561;SDS011;68963;52.138;5.446;2023-04-27T12:46:41;9.68;;;4.00;;
78561;SDS011;68963;52.138;5.446;2023-04-27T12:49:09;12.18;;;4.70;;
78561;SDS011;68963;52.138;5.446;2023-04-27T12:51:36;9.18;;;4.80;;
78561;SDS011;68963;52.138;5.446;2023-04-27T12:54:03;8.70;;;4.20;;
78561;SDS011;68963;52.138;5.446;2023-04-27T12:56:32;8.02;;;4.70;;
78561;SDS011;68963;52.138;5.446;2023-04-27T12:58:59;8.20;;;4.50;;
78561;SDS011;68963;52.138;5.446;2023-04-27T13:01:26;11.30;;;4.63;;
78561;SDS011;68963;52.138;5.446;2023-04-27T13:03:53;9.38;;;4.60;;
78561;SDS011;68963;52.138;5.446;2023-04-27T13:06:21;8.18;;;4.78;;
78561;SDS011;68963;52.138;5.446;2023-04-27T13:08:48;11.68;;;5.57;;
78561;SDS011;68963;52.138;5.446;2023-04-27T13:11:15;10.80;;;5.18;;
78561;SDS011;68963;52.138;5.446;2023-04-27T13:13:42;8.95;;;4.53;;
78561;SDS011;68963;52.138;5.446;2023-04-27T13:16:09;9.75;;;4.80;;
78561;SDS011;68963;52.138;5.446;2023-04-27T13:18:37;7.75;;;4.55;;
78561;SDS011;68963;52.138;5.446;2023-04-27T13:21:04;10.82;;;5.20;;
78561;SDS011;68963;52.138;5.446;2023-04-27T13:23:31;9.52;;;4.70;;
78561;SDS011;68963;52.138;5.446;2023-04-27T13:25:57;11.15;;;5.00;;
78561;SDS011;68963;52.138;5.446;2023-04-27T13:28:24;10.57;;;5.32;;
78561;SDS011;68963;52.138;5.446;2023-04-27T13:30:51;9.63;;;5.32;;
78561;SDS011;68963;52.138;5.446;2023-04-27T13:33:17;10.70;;;4.90;;
78561;SDS011;68963;52.138;5.446;2023-04-27T13:35:49;8.23;;;4.40;;
78561;SDS011;68963;52.138;5.446;2023-04-27T13:38:16;10.20;;;4.90;;
78561;SDS011;68963;52.138;5.446;2023-04-27T13:40:43;8.57;;;4.90;;
78561;SDS011;68963;52.138;5.446;2023-04-27T13:43:09;9.10;;;4.72;;
78561;SDS011;68963;52.138;5.446;2023-04-27T13:45:36;8.25;;;4.30;;
78561;SDS011;68963;52.138;5.446;2023-04-27T13:48:03;7.90;;;4.30;;
78561;SDS011;68963;52.138;5.446;2023-04-27T13:50:30;9.20;;;4.60;;
78561;SDS011;68963;52.138;5.446;2023-04-27T13:52:56;8.15;;;4.53;;
78561;SDS011;68963;52.138;5.446;2023-04-27T13:55:23;7.45;;;4.13;;
78561;SDS011;68963;52.138;5.446;2023-04-27T13:57:49;8.05;;;3.85;;
78561;SDS011;68963;52.138;5.446;2023-04-27T14:00:16;8.63;;;4.30;;
78561;SDS011;68963;52.138;5.446;2023-04-27T14:02:43;8.57;;;4.25;;
78561;SDS011;68963;52.138;5.446;2023-04-27T14:05:10;7.90;;;4.00;;
78561;SDS011;68963;52.138;5.446;2023-04-27T14:07:36;8.50;;;4.03;;
78561;SDS011;68963;52.138;5.446;2023-04-27T14:10:03;7.45;;;4.03;;
78561;SDS011;68963;52.138;5.446;2023-04-27T14:12:30;7.95;;;4.03;;
78561;SDS011;68963;52.138;5.446;2023-04-27T14:14:57;7.45;;;3.97;;
78561;SDS011;68963;52.138;5.446;2023-04-27T14:17:24;7.93;;;4.18;;
78561;SDS011;68963;52.138;5.446;2023-04-27T14:19:50;7.10;;;3.90;;
78561;SDS011;68963;52.138;5.446;2023-04-27T14:22:17;7.70;;;4.00;;
78561;SDS011;68963;52.138;5.446;2023-04-27T14:24:43;7.43;;;3.72;;
78561;SDS011;68963;52.138;5.446;2023-04-27T14:27:10;8.15;;;3.63;;
78561;SDS011;68963;52.138;5.446;2023-04-27T14:29:37;7.55;;;3.70;;
78561;SDS011;68963;52.138;5.446;2023-04-27T14:32:03;6.85;;;4.03;;
78561;SDS011;68963;52.138;5.446;2023-04-27T14:34:31;8.88;;;3.90;;
78561;SDS011;68963;52.138;5.446;2023-04-27T14:36:58;6.65;;;4.00;;
78561;SDS011;68963;52.138;5.446;2023-04-27T14:39:24;6.28;;;3.70;;
78561;SDS011;68963;52.138;5.446;2023-04-27T14:41:53;8.48;;;4.03;;
78561;SDS011;68963;52.138;5.446;2023-04-27T14:44:19;7.25;;;3.70;;
78561;SDS011;68963;52.138;5.446;2023-04-27T14:46:46;8.02;;;3.72;;
78561;SDS011;68963;52.138;5.446;2023-04-27T14:49:12;8.88;;;3.90;;
78561;SDS011;68963;52.138;5.446;2023-04-27T14:51:39;7.15;;;3.30;;
78561;SDS011;68963;52.138;5.446;2023-04-27T14:54:08;6.78;;;3.55;;
78561;SDS011;68963;52.138;5.446;2023-04-27T14:56:35;8.60;;;3.80;;